Time;durP1;ratioP1;P1;durP2;ratioP2;P2;SDS_P1;SDS_P2;PMS_P1;PMS_P2;Temp;Humidity;BMP_temperature;BMP_pressure;BME280_temperature;BME280_humidity;BME280_pressure;Samples;Min_cycle;Max_cycle;Signal;HPM_P1;HPM_P2
2024/03/08 00:01:36;;;;;;;23.40;8.90;;;;;;;2.60;100.00;101974.69;6253787;28;20148;-71
2024/03/08 00:04:37;;;;;;;16.40;8.45;;;;;;;2.59;100.00;101966.88;6253061;28;20057;-71
2024/03/08 00:07:39;;;;;;;23.90;9.13;;;;;;;2.54;100.00;101969.47;6253547;28;20045;-70
2024/03/08 00:10:40;;;;;;;17.60;8.52;;;;;;;2.54;100.00;101969.47;6252852;28;20323;-71
2024/03/08 00:13:42;;;;;;;23.52;9.07;;;;;;;2.53;100.00;101967.75;6253608;28;20049;-71
2024/03/08 00:16:44;;;;;;;21.63;8.30;;;;;;;2.54;100.00;101959.09;6253051;28;20472;-71
2024/03/08 00:19:46;;;;;;;23.92;7.95;;;;;;;2.50;100.00;101958.25;6253087;28;20050;-71
2024/03/08 00:22:48;;;;;;;20.23;8.00;;;;;;;2.53;100.00;101954.78;6252987;28;20070;-71
2024/03/08 00:25:49;;;;;;;19.08;8.43;;;;;;;2.50;100.00;101960.84;6252519;28;20049;-72
2024/03/08 00:28:50;;;;;;;22.40;7.93;;;;;;;2.48;100.00;101961.72;6252309;28;20045;-72
2024/03/08 00:31:53;;;;;;;24.70;8.60;;;;;;;2.40;100.00;101959.09;6242007;28;20347;-71
2024/03/08 00:34:55;;;;;;;19.20;8.23;;;;;;;2.42;100.00;101954.78;6228432;28;20061;-71
2024/03/08 00:37:57;;;;;;;24.25;9.27;;;;;;;2.36;100.00;101948.72;6228571;28;20604;-71
2024/03/08 00:40:58;;;;;;;29.45;8.73;;;;;;;2.34;100.00;101953.94;6227974;28;20129;-71
2024/03/08 00:44:00;;;;;;;20.75;9.13;;;;;;;2.29;100.00;101951.34;6228360;28;20057;-71
2024/03/08 00:47:03;;;;;;;19.73;8.80;;;;;;;2.27;100.00;101952.19;6228105;28;20046;-71
2024/03/08 00:50:05;;;;;;;23.25;8.55;;;;;;;2.27;100.00;101950.47;6249112;28;20127;-71
2024/03/08 00:53:06;;;;;;;21.40;8.70;;;;;;;2.23;100.00;101948.75;6252715;28;20056;-71
2024/03/08 00:56:09;;;;;;;20.60;8.65;;;;;;;2.22;100.00;101940.94;6252213;28;20060;-71
2024/03/08 00:59:11;;;;;;;24.58;8.32;;;;;;;2.16;100.00;101939.22;6244089;28;20057;-71
2024/03/08 01:02:13;;;;;;;19.08;8.85;;;;;;;2.17;100.00;101930.56;6230063;28;20050;-73
2024/03/08 01:05:15;;;;;;;20.67;8.60;;;;;;;2.07;100.00;101928.84;6227092;28;20069;-73
2024/03/08 01:08:16;;;;;;;26.48;10.60;;;;;;;2.07;100.00;101930.56;6227504;28;20057;-71
2024/03/08 01:11:18;;;;;;;21.80;8.48;;;;;;;1.97;100.00;101930.56;6227071;28;20066;-73
2024/03/08 01:14:22;;;;;;;17.13;8.07;;;;;;;2.00;100.00;101924.53;6227355;28;20136;-72
2024/03/08 01:17:24;;;;;;;23.67;9.18;;;;;;;2.06;100.00;101919.34;6227293;28;20050;-71
2024/03/08 01:20:26;;;;;;;20.70;8.13;;;;;;;2.06;100.00;101911.56;6226947;28;20132;-73
2024/03/08 01:23:27;;;;;;;23.90;8.68;;;;;;;2.03;100.00;101901.19;6227085;28;20054;-74
2024/03/08 01:26:29;;;;;;;20.35;8.88;;;;;;;1.96;100.00;101904.66;6227135;28;20053;-72
2024/03/08 01:29:30;;;;;;;23.35;8.32;;;;;;;1.95;100.00;101910.69;6226676;28;20046;-71
2024/03/08 01:32:33;;;;;;;20.70;7.65;;;;;;;1.96;100.00;101895.16;6227252;28;20124;-71
2024/03/08 01:35:35;;;;;;;21.30;8.65;;;;;;;1.93;100.00;101907.22;6226727;28;20057;-70
2024/03/08 01:38:36;;;;;;;21.05;9.70;;;;;;;1.88;100.00;101896.00;6226574;28;20132;-71
2024/03/08 01:41:37;;;;;;;25.90;8.70;;;;;;;1.86;100.00;101889.94;6226209;28;20144;-72
2024/03/08 01:44:39;;;;;;;25.85;10.32;;;;;;;1.65;100.00;101885.59;6226300;28;20050;-71
2024/03/08 01:47:42;;;;;;;18.92;8.48;;;;;;;1.64;100.00;101883.88;6227970;28;20074;-73
2024/03/08 01:50:44;;;;;;;24.88;9.35;;;;;;;1.65;100.00;101873.50;6250623;28;20053;-74
2024/03/08 01:53:47;;;;;;;20.73;8.27;;;;;;;1.67;100.00;101870.91;6251267;28;20132;-73
2024/03/08 01:56:49;;;;;;;20.63;9.40;;;;;;;1.74;100.00;101867.47;6249467;28;20046;-73
2024/03/08 01:59:50;;;;;;;23.38;8.90;;;;;;;1.69;100.00;101862.28;6226902;28;21539;-73
2024/03/08 02:02:54;;;;;;;24.95;9.48;;;;;;;1.74;100.00;101862.31;6226185;28;20046;-73
2024/03/08 02:05:56;;;;;;;20.23;8.93;;;;;;;1.79;100.00;101850.22;6226171;28;20046;-73
2024/03/08 02:08:58;;;;;;;24.95;9.00;;;;;;;1.84;100.00;101851.06;6236804;28;20049;-72
2024/03/08 02:11:59;;;;;;;24.58;9.35;;;;;;;1.78;100.00;101851.06;6250107;28;20473;-73
2024/03/08 02:15:00;;;;;;;22.60;8.80;;;;;;;1.75;100.00;101861.44;6236442;28;20053;-73
2024/03/08 02:18:03;;;;;;;22.05;8.93;;;;;;;1.74;100.00;101855.38;6247980;28;20049;-73
2024/03/08 02:21:08;;;;;;;24.15;8.77;;;;;;;1.71;100.00;101850.19;6249915;28;20358;-73
2024/03/08 02:24:10;;;;;;;23.10;9.18;;;;;;;1.58;100.00;101857.94;6244894;28;20087;-73
2024/03/08 02:27:12;;;;;;;28.75;9.60;;;;;;;1.50;100.00;101850.19;6240855;28;20476;-73
2024/03/08 02:30:13;;;;;;;27.10;9.20;;;;;;;1.54;100.00;101851.88;6241466;28;20136;-73
2024/03/08 02:33:17;;;;;;;24.40;9.35;;;;;;;1.58;100.00;101842.41;6238779;28;20061;-72
2024/03/08 02:36:20;;;;;;;27.10;9.98;;;;;;;1.59;100.00;101838.94;6245190;28;20097;-72
2024/03/08 02:39:22;;;;;;;25.60;8.40;;;;;;;1.56;100.00;101837.22;6248283;28;20049;-72
2024/03/08 02:42:23;;;;;;;27.73;10.27;;;;;;;1.51;100.00;101832.03;6250056;28;20136;-72
2024/03/08 02:45:25;;;;;;;26.23;9.23;;;;;;;1.52;100.00;101830.31;6244592;28;20203;-72
2024/03/08 02:48:26;;;;;;;23.13;8.32;;;;;;;1.46;100.00;101823.41;6248746;28;20053;-72
2024/03/08 02:51:30;;;;;;;22.35;9.55;;;;;;;1.43;100.00;101825.97;6251036;28;20056;-72
2024/03/08 02:54:32;;;;;;;19.52;8.93;;;;;;;1.39;100.00;101825.97;6254921;28;20050;-73
2024/03/08 02:57:33;;;;;;;24.52;9.70;;;;;;;1.40;100.00;101823.38;6255035;28;20049;-72
2024/03/08 03:00:34;;;;;;;21.80;7.90;;;;;;;1.40;100.00;101825.09;6254772;28;20056;-72
2024/03/08 03:03:36;;;;;;;19.65;8.13;;;;;;;1.37;100.00;101822.53;6255060;28;20049;-73
2024/03/08 03:06:39;;;;;;;20.83;8.43;;;;;;;1.38;100.00;101821.66;6254944;28;20049;-72
2024/03/08 03:09:40;;;;;;;22.48;9.02;;;;;;;1.37;100.00;101810.44;6251017;28;20064;-73
2024/03/08 03:12:42;;;;;;;21.48;8.50;;;;;;;1.34;100.00;101814.75;6254740;28;20136;-72
2024/03/08 03:15:43;;;;;;;22.73;9.40;;;;;;;1.27;100.00;101809.56;6254441;28;20045;-72
2024/03/08 03:18:45;;;;;;;29.63;8.65;;;;;;;1.24;100.00;101814.72;6254346;28;20046;-73
2024/03/08 03:21:47;;;;;;;22.63;7.97;;;;;;;1.21;100.00;101809.53;6254777;28;20130;-72
2024/03/08 03:24:50;;;;;;;23.17;9.13;;;;;;;1.22;100.00;101805.22;6240783;28;20057;-73
2024/03/08 03:27:52;;;;;;;21.98;8.15;;;;;;;1.14;100.00;101806.94;6235678;28;20053;-72
2024/03/08 03:30:53;;;;;;;20.98;9.43;;;;;;;1.12;100.00;101803.47;6229631;28;20049;-72
2024/03/08 03:34:00;;;;;;;24.77;8.77;;;;;;;1.17;100.00;101804.34;6228638;28;20192;-72
2024/03/08 03:37:03;;;;;;;26.77;8.82;;;;;;;1.17;100.00;101794.00;6246047;28;20057;-73
2024/03/08 03:40:08;;;;;;;26.08;9.40;;;;;;;1.16;100.00;101787.94;6235130;28;20049;-73
2024/03/08 03:43:10;;;;;;;25.95;8.13;;;;;;;1.17;100.00;101796.56;6229764;28;20060;-72
2024/03/08 03:46:12;;;;;;;25.17;8.85;;;;;;;1.14;100.00;101792.28;6242907;28;20052;-72
2024/03/08 03:49:13;;;;;;;24.08;8.27;;;;;;;1.14;100.00;101794.00;6253588;28;20045;-72
2024/03/08 03:52:17;;;;;;;24.90;7.95;;;;;;;1.12;100.00;101788.81;6253883;28;20336;-72
2024/03/08 03:55:19;;;;;;;27.80;9.88;;;;;;;1.12;100.00;101787.94;6253502;28;20052;-72
2024/03/08 03:58:22;;;;;;;22.83;8.70;;;;;;;1.12;100.00;101788.81;6253796;28;20045;-72
2024/03/08 04:01:23;;;;;;;20.73;7.35;;;;;;;1.12;100.00;101786.22;6253304;28;20077;-72
2024/03/08 04:04:25;;;;;;;24.38;9.98;;;;;;;1.11;100.00;101781.91;6252656;28;20053;-72
2024/03/08 04:07:27;;;;;;;18.33;8.52;;;;;;;1.08;100.00;101775.84;6253626;28;20658;-72
2024/03/08 04:10:29;;;;;;;21.48;9.05;;;;;;;1.10;100.00;101781.91;6253266;28;20053;-72
2024/03/08 04:13:30;;;;;;;18.52;8.30;;;;;;;1.06;100.00;101780.19;6253461;28;20056;-72
2024/03/08 04:16:32;;;;;;;27.35;9.88;;;;;;;1.09;100.00;101778.47;6253434;28;20057;-72
2024/03/08 04:19:34;;;;;;;21.77;8.88;;;;;;;0.99;100.00;101771.50;6252920;28;20049;-72
2024/03/08 04:22:37;;;;;;;23.35;9.25;;;;;;;1.00;100.00;101768.94;6253304;28;20049;-72
2024/03/08 04:25:38;;;;;;;32.90;10.80;;;;;;;0.96;100.00;101776.69;6252928;28;20050;-72
2024/03/08 04:28:41;;;;;;;25.83;9.90;;;;;;;0.98;100.00;101769.78;6244839;28;20252;-72
2024/03/08 04:31:42;;;;;;;23.50;9.02;;;;;;;1.04;100.00;101772.38;6244270;28;20110;-72
2024/03/08 04:34:44;;;;;;;21.55;9.48;;;;;;;0.99;100.00;101769.78;6228862;28;20053;-72
2024/03/08 04:37:47;;;;;;;25.88;8.30;;;;;;;0.95;100.00;101768.09;6228629;28;20050;-72
2024/03/08 04:40:48;;;;;;;20.83;8.25;;;;;;;0.91;100.00;101768.03;6228081;28;20049;-73
2024/03/08 04:43:50;;;;;;;21.83;8.77;;;;;;;0.89;100.00;101768.03;6228056;28;20566;-72
2024/03/08 04:46:51;;;;;;;20.98;8.45;;;;;;;0.84;100.00;101768.91;6227834;28;20046;-72
2024/03/08 04:49:54;;;;;;;24.50;9.50;;;;;;;0.77;100.00;101760.22;6227521;28;20346;-72
2024/03/08 04:52:57;;;;;;;24.60;9.60;;;;;;;0.75;100.00;101762.81;6227913;28;20061;-72
2024/03/08 04:55:58;;;;;;;24.08;10.05;;;;;;;0.77;100.00;101762.81;6227283;28;20054;-73
2024/03/08 04:59:00;;;;;;;21.35;8.50;;;;;;;0.67;100.00;101761.06;6227360;28;20096;-72
2024/03/08 05:02:01;;;;;;;21.65;8.93;;;;;;;0.68;100.00;101758.50;6227682;28;20050;-72
2024/03/08 05:05:06;;;;;;;27.48;9.38;;;;;;;0.65;100.00;101755.03;6227514;28;20054;-72
2024/03/08 05:08:08;;;;;;;24.67;9.85;;;;;;;0.57;100.00;101757.59;6227512;28;20049;-72
2024/03/08 05:11:10;;;;;;;22.48;8.82;;;;;;;0.59;100.00;101758.47;6226334;28;20450;-72
2024/03/08 05:14:12;;;;;;;25.40;9.57;;;;;;;0.54;100.00;101757.56;6248046;28;20053;-72
2024/03/08 05:17:13;;;;;;;20.35;8.50;;;;;;;0.55;100.00;101761.03;6252008;28;20050;-72
2024/03/08 05:20:17;;;;;;;19.65;8.10;;;;;;;0.59;100.00;101752.41;6251259;28;20457;-72
2024/03/08 05:23:20;;;;;;;24.05;9.30;;;;;;;0.60;100.00;101755.03;6233176;28;20053;-72
2024/03/08 05:26:22;;;;;;;22.08;9.27;;;;;;;0.50;100.00;101748.94;6249967;28;20426;-72
2024/03/08 05:29:23;;;;;;;28.75;10.77;;;;;;;0.52;100.00;101753.25;6251600;28;20046;-72
2024/03/08 05:32:25;;;;;;;29.02;9.75;;;;;;;0.38;100.00;101743.72;6251145;28;20124;-73
2024/03/08 05:35:26;;;;;;;23.95;9.57;;;;;;;0.45;100.00;101742.00;6251085;28;20128;-72
2024/03/08 05:38:29;;;;;;;21.08;9.32;;;;;;;0.37;100.00;101747.16;6228955;28;20038;-72
2024/03/08 05:41:30;;;;;;;29.58;11.05;;;;;;;0.38;100.00;101746.31;6242195;28;20053;-72
2024/03/08 05:44:32;;;;;;;28.23;11.18;;;;;;;0.46;100.00;101733.41;6243261;28;20056;-72
2024/03/08 05:47:33;;;;;;;28.42;10.13;;;;;;;0.36;100.00;101741.97;6251454;28;20041;-72
2024/03/08 05:50:35;;;;;;;31.55;11.50;;;;;;;0.45;100.00;101742.00;6243115;28;20057;-72
2024/03/08 05:53:37;;;;;;;29.13;10.23;;;;;;;0.42;100.00;101736.84;6244882;28;20046;-72
2024/03/08 05:56:42;;;;;;;29.00;11.50;;;;;;;0.41;100.00;101730.81;6236425;28;20049;-72
2024/03/08 05:59:43;;;;;;;28.27;10.85;;;;;;;0.47;100.00;101740.31;6228404;28;20038;-72
2024/03/08 06:02:44;;;;;;;26.63;11.48;;;;;;;0.51;100.00;101731.72;6238284;28;20052;-72
2024/03/08 06:05:46;;;;;;;30.52;9.65;;;;;;;0.53;100.00;101745.50;6243301;28;20049;-72
2024/03/08 06:08:49;;;;;;;32.63;11.68;;;;;;;0.56;100.00;101732.59;6245524;28;20042;-72
2024/03/08 06:11:51;;;;;;;25.77;11.38;;;;;;;0.52;100.00;101730.84;6246712;28;20675;-72
2024/03/08 06:14:52;;;;;;;28.00;11.05;;;;;;;0.54;100.00;101733.44;6251099;28;20461;-72
2024/03/08 06:17:53;;;;;;;30.27;11.35;;;;;;;0.58;100.00;101724.81;6242834;28;20060;-72
2024/03/08 06:20:55;;;;;;;23.55;10.45;;;;;;;0.60;100.00;101726.56;6247537;28;20049;-71
2024/03/08 06:23:58;;;;;;;35.47;11.55;;;;;;;0.50;100.00;101730.84;6226095;28;20053;-71
2024/03/08 06:26:59;;;;;;;34.45;12.45;;;;;;;0.46;100.00;101731.69;6244887;28;20148;-71
2024/03/08 06:30:01;;;;;;;25.05;10.15;;;;;;;0.45;100.00;101723.91;6250059;28;20049;-73
2024/03/08 06:33:02;;;;;;;24.20;10.18;;;;;;;0.53;100.00;101729.13;6250343;28;20046;-71
2024/03/08 06:36:04;;;;;;;25.70;11.35;;;;;;;0.53;100.00;101722.22;6250169;28;20045;-72
2024/03/08 06:39:09;;;;;;;29.75;12.15;;;;;;;0.49;100.00;101715.31;6237473;28;20045;-71
2024/03/08 06:42:12;;;;;;;40.70;11.43;;;;;;;0.59;100.00;101719.69;6225639;28;20042;-73
2024/03/08 06:45:18;;;;;;;36.92;11.05;;;;;;;0.64;100.00;101728.31;6225208;28;20401;-73
2024/03/08 06:48:20;;;;;;;33.42;12.05;;;;;;;0.72;100.00;101728.31;6225492;28;20058;-73
2024/03/08 06:51:21;;;;;;;27.60;12.00;;;;;;;0.67;100.00;101727.44;6225386;28;20046;-73
2024/03/08 06:54:24;;;;;;;34.47;11.73;;;;;;;0.81;100.00;101736.09;6225137;28;20069;-73
2024/03/08 06:57:26;;;;;;;30.38;10.85;;;;;;;0.79;100.00;101730.06;6240838;28;20103;-73
2024/03/08 07:00:28;;;;;;;26.95;11.57;;;;;;;0.78;100.00;101733.53;6226304;28;20473;-73
2024/03/08 07:03:30;;;;;;;32.83;11.88;;;;;;;0.89;100.00;101733.53;6249467;28;20049;-73
2024/03/08 07:06:33;;;;;;;45.35;14.77;;;;;;;0.90;100.00;101722.31;6249609;28;20434;-73
2024/03/08 07:09:35;;;;;;;34.85;13.13;;;;;;;1.00;100.00;101726.69;6249446;28;20046;-72
2024/03/08 07:12:37;;;;;;;30.83;12.20;;;;;;;1.00;100.00;101724.94;6249837;28;20048;-73
2024/03/08 07:15:38;;;;;;;25.23;10.45;;;;;;;1.06;100.00;101734.44;6249664;28;20045;-73
2024/03/08 07:18:43;;;;;;;36.25;13.32;;;;;;;1.04;100.00;101724.94;6249829;28;20046;-72
2024/03/08 07:21:44;;;;;;;31.08;11.45;;;;;;;1.06;100.00;101721.50;6250059;28;20054;-73
2024/03/08 07:25:04;;;;;;;33.55;11.82;;;;;;;1.14;100.00;101730.16;6249142;28;20509;-73
2024/03/08 07:28:06;;;;;;;30.30;12.25;;;;;;;1.11;100.00;101722.38;6249914;28;20077;-73
2024/03/08 07:31:21;;;;;;;32.97;11.45;;;;;;;1.26;100.00;101721.50;6249279;28;20131;-73
2024/03/08 07:34:22;;;;;;;28.98;11.98;;;;;;;1.31;100.00;101719.78;6249439;28;20111;-72
2024/03/08 07:37:24;;;;;;;31.35;11.77;;;;;;;1.31;100.00;101721.50;6249531;28;20358;-73
2024/03/08 07:40:26;;;;;;;26.98;11.73;;;;;;;1.32;100.00;101716.34;6245094;28;20418;-73
2024/03/08 07:43:28;;;;;;;38.20;12.10;;;;;;;1.39;100.00;101712.88;6254174;28;20045;-73
2024/03/08 07:46:29;;;;;;;31.08;13.63;;;;;;;1.44;100.00;101718.06;6246810;28;20045;-73
2024/03/08 07:49:31;;;;;;;34.38;12.50;;;;;;;1.55;100.00;101723.25;6252644;28;20132;-72
2024/03/08 07:52:33;;;;;;;32.08;13.55;;;;;;;1.62;100.00;101719.78;6245754;28;20053;-72
2024/03/08 07:55:36;;;;;;;28.77;11.43;;;;;;;1.65;100.00;101718.06;6253566;28;20360;-72
2024/03/08 07:58:37;;;;;;;36.63;12.73;;;;;;;1.70;100.00;101707.69;6253413;28;20053;-72
2024/03/08 08:01:39;;;;;;;27.75;11.57;;;;;;;1.77;100.00;101712.00;6237737;28;20053;-73
2024/03/08 08:04:41;;;;;;;34.85;13.95;;;;;;;1.87;100.00;101715.44;6228793;28;20049;-72
2024/03/08 08:07:45;;;;;;;39.78;13.60;;;;;;;1.89;100.00;101708.53;6238550;28;20045;-72
2024/03/08 08:10:49;;;;;;;30.45;13.13;;;;;;;1.92;100.00;101695.56;6249262;28;20350;-72
2024/03/08 08:13:50;;;;;;;32.75;13.18;;;;;;;1.98;100.00;101699.00;6253188;28;20045;-71
2024/03/08 08:16:52;;;;;;;27.63;11.52;;;;;;;2.01;100.00;101698.13;6240358;28;20354;-72
2024/03/08 08:19:53;;;;;;;40.92;15.65;;;;;;;2.13;100.00;101700.66;6249316;28;20047;-73
2024/03/08 08:22:55;;;;;;;31.00;12.35;;;;;;;2.20;100.00;101697.19;6250618;28;20072;-73
2024/03/08 08:25:58;;;;;;;35.25;12.70;;;;;;;2.27;100.00;101693.72;6299161;22;20077;-74
2024/03/08 08:28:59;;;;;;;28.45;12.00;;;;;;;2.31;100.00;101696.28;6286973;28;20045;-75
2024/03/08 08:32:00;;;;;;;31.05;12.82;;;;;;;2.44;100.00;101690.19;6277996;28;20044;-75
2024/03/08 08:35:02;;;;;;;30.17;12.52;;;;;;;2.49;100.00;101693.63;6272350;28;20041;-75
2024/03/08 08:38:04;;;;;;;32.85;12.43;;;;;;;2.62;100.00;101686.63;6275445;28;20437;-75
2024/03/08 08:41:07;;;;;;;30.85;12.15;;;;;;;2.73;100.00;101698.69;6261800;28;20048;-76
2024/03/08 08:44:10;;;;;;;28.42;12.95;;;;;;;2.86;100.00;101686.50;6269098;28;20401;-76
2024/03/08 08:47:11;;;;;;;32.75;13.60;;;;;;;2.87;100.00;101690.81;6257229;28;20087;-74
2024/03/08 08:50:12;;;;;;;28.27;12.30;;;;;;;2.96;100.00;101677.78;6251927;28;20044;-77
2024/03/08 08:53:14;;;;;;;24.83;11.63;;;;;;;3.10;100.00;101682.00;6252424;28;20050;-77
2024/03/08 08:56:18;;;;;;;34.28;12.85;;;;;;;3.12;100.00;101675.06;6261695;28;20329;-77
2024/03/08 08:59:20;;;;;;;24.42;11.25;;;;;;;3.24;100.00;101662.84;6267353;28;20041;-77
2024/03/08 09:02:21;;;;;;;33.75;12.57;;;;;;;3.31;100.00;101674.88;6256964;28;20068;-76
2024/03/08 09:05:24;;;;;;;28.10;11.73;;;;;;;3.41;100.00;101670.50;6251964;28;20076;-77
2024/03/08 09:08:25;;;;;;;29.60;12.85;;;;;;;3.54;100.00;101666.03;6264624;28;20495;-77
2024/03/08 09:11:29;;;;;;;28.50;13.73;;;;;;;3.56;100.00;101659.09;6257592;28;20078;-76
2024/03/08 09:14:31;;;;;;;29.35;11.65;;;;;;;3.65;100.00;101661.59;6251504;28;20362;-75
2024/03/08 09:17:33;;;;;;;24.77;10.85;;;;;;;3.70;100.00;101648.56;6251945;28;20042;-76
2024/03/08 09:20:35;;;;;;;37.88;13.77;;;;;;;3.78;100.00;101650.19;6251204;28;20129;-75
2024/03/08 09:23:36;;;;;;;26.20;12.10;;;;;;;3.89;100.00;101644.88;6251912;28;20049;-75
2024/03/08 09:26:42;;;;;;;29.90;12.55;;;;;;;3.93;100.00;101632.69;6251218;28;20042;-75
2024/03/08 09:29:44;;;;;;;25.65;11.20;;;;;;;4.01;100.00;101636.94;6260283;28;20124;-77
2024/03/08 09:32:46;;;;;;;33.25;12.27;;;;;;;4.15;100.00;101636.78;6276309;28;20045;-77
2024/03/08 09:35:48;;;;;;;28.35;11.95;;;;;;;4.27;100.00;101634.03;6266835;28;20441;-77
2024/03/08 09:38:50;;;;;;;28.00;11.60;;;;;;;4.31;100.00;101632.22;6251784;28;20239;-75
2024/03/08 09:41:52;;;;;;;28.40;12.45;;;;;;;4.28;100.00;101624.47;6250867;28;20409;-76
2024/03/08 09:44:54;;;;;;;23.85;11.07;;;;;;;4.39;100.00;101624.31;6250887;28;20046;-75
2024/03/08 09:47:55;;;;;;;32.03;13.73;;;;;;;4.46;100.00;101619.00;6259356;28;20056;-77
2024/03/08 09:50:57;;;;;;;31.17;13.68;;;;;;;4.55;100.00;101611.06;6250808;28;20453;-77
2024/03/08 09:53:59;;;;;;;29.63;12.23;;;;;;;4.61;100.00;101602.31;6251028;28;20054;-77
2024/03/08 09:57:03;;;;;;;27.30;11.27;;;;;;;4.72;100.00;101595.19;6250977;28;20057;-77
2024/03/08 10:00:18;;;;;;;32.55;13.35;;;;;;;4.76;100.00;101590.78;6250132;28;20044;-77
2024/03/08 10:03:20;;;;;;;28.70;12.52;;;;;;;4.87;100.00;101583.69;6251185;28;20068;-77
2024/03/08 10:06:24;;;;;;;28.15;11.93;;;;;;;5.02;100.00;101573.00;6250581;28;20045;-78
2024/03/08 10:09:27;;;;;;;28.20;12.80;;;;;;;5.04;100.00;101572.97;6254446;28;20065;-77
2024/03/08 10:12:31;;;;;;;31.67;13.48;;;;;;;5.21;100.00;101567.47;6252339;28;20053;-78
2024/03/08 10:15:32;;;;;;;30.80;12.98;;;;;;;5.26;100.00;101563.88;6250383;28;20334;-77
2024/03/08 10:18:34;;;;;;;27.00;12.20;;;;;;;5.31;100.00;101550.75;6250154;28;20418;-79
2024/03/08 10:21:35;;;;;;;31.63;13.30;;;;;;;5.39;100.00;101548.88;6250722;28;20037;-75
2024/03/08 10:24:36;;;;;;;35.63;13.50;;;;;;;5.48;100.00;101553.06;6249937;28;20434;-76
2024/03/08 10:27:40;;;;;;;25.63;11.60;;;;;;;5.57;100.00;101545.91;6250812;28;20049;-76
2024/03/08 10:30:48;;;;;;;32.75;11.88;;;;;;;5.67;100.00;101532.69;6258299;28;20456;-75
2024/03/08 10:33:50;;;;;;;42.25;12.93;;;;;;;5.77;100.00;101534.25;6250203;28;20466;-77
2024/03/08 10:36:52;;;;;;;28.58;13.18;;;;;;;5.85;100.00;101527.09;6250345;28;20077;-77
2024/03/08 10:40:10;;;;;;;33.72;14.18;;;;;;;5.97;100.00;101536.47;6249562;28;20052;-76
2024/03/08 10:43:23;;;;;;;29.70;12.27;;;;;;;6.07;100.00;101517.94;6250453;28;20060;-78
2024/03/08 10:46:33;;;;;;;26.17;11.88;;;;;;;6.13;100.00;101513.47;6253747;28;20053;-77
2024/03/08 10:49:39;;;;;;;28.35;11.50;;;;;;;6.28;100.00;101515.75;6250663;28;20041;-77
2024/03/08 10:52:41;;;;;;;28.88;13.13;;;;;;;6.35;100.00;101519.91;6250233;28;20461;-75
2024/03/08 10:55:44;;;;;;;35.10;12.77;;;;;;;6.40;100.00;101510.22;6249813;28;20041;-75
2024/03/08 10:58:48;;;;;;;32.53;12.25;;;;;;;6.42;100.00;101502.38;6249667;28;20426;-76
2024/03/08 11:01:50;;;;;;;34.38;12.88;;;;;;;6.43;100.00;101509.31;6250301;28;20342;-76
2024/03/08 11:04:54;;;;;;;25.77;12.43;;;;;;;6.56;100.00;101495.91;6250049;28;20092;-75
2024/03/08 11:07:55;;;;;;;30.05;12.07;;;;;;;6.72;100.00;101492.91;6249999;28;20045;-76
2024/03/08 11:10:56;;;;;;;29.40;13.15;;;;;;;6.83;100.00;101494.38;6255435;28;20053;-74
2024/03/08 11:13:59;;;;;;;32.25;11.65;;;;;;;6.88;100.00;101483.78;6253955;28;20045;-75
2024/03/08 11:17:06;;;;;;;28.92;12.10;;;;;;;6.99;100.00;101476.50;6254561;28;20053;-75
2024/03/08 11:20:15;;;;;;;25.55;12.63;;;;;;;7.15;100.00;101476.13;6254368;28;20041;-75
2024/03/08 11:23:23;;;;;;;33.50;11.83;;;;;;;7.29;100.00;101472.22;6254648;28;20041;-76
2024/03/08 11:26:25;;;;;;;29.33;11.80;;;;;;;7.31;100.00;101457.38;6254204;28;20049;-77
2024/03/08 11:29:40;;;;;;;26.73;11.75;;;;;;;7.49;98.91;101455.94;6253997;28;20046;-77
2024/03/08 11:32:47;;;;;;;24.35;10.90;;;;;;;7.55;96.51;101444.47;6277028;28;20061;-75
2024/03/08 11:35:48;;;;;;;27.10;10.68;;;;;;;7.63;94.33;101443.34;6254076;28;20037;-75
2024/03/08 11:38:52;;;;;;;27.13;11.20;;;;;;;7.69;92.00;101439.69;6265424;28;20048;-76
2024/03/08 11:41:53;;;;;;;33.13;12.02;;;;;;;7.83;94.71;101427.03;6254059;28;20045;-76
2024/03/08 11:44:57;;;;;;;32.25;12.43;;;;;;;7.92;95.02;101428.50;6262236;28;20060;-75
2024/03/08 11:48:00;;;;;;;26.63;12.85;;;;;;;8.06;92.33;101422.84;6263136;28;20049;-77
2024/03/08 11:51:03;;;;;;;23.10;11.05;;;;;;;8.14;89.50;101418.22;6256910;28;20052;-75
2024/03/08 11:54:06;;;;;;;26.25;11.77;;;;;;;8.48;93.67;101417.97;6257066;28;20049;-77
2024/03/08 11:57:09;;;;;;;24.17;11.05;;;;;;;8.43;90.56;101409.41;6261675;28;20051;-76
2024/03/08 12:00:25;;;;;;;27.27;11.63;;;;;;;8.59;90.72;101401.91;6252845;28;20128;-75
2024/03/08 12:03:26;;;;;;;25.38;11.18;;;;;;;8.89;88.05;101398.19;6253473;28;20049;-76
2024/03/08 12:06:37;;;;;;;24.95;11.02;;;;;;;9.11;86.72;101394.78;6261490;28;20064;-78
2024/03/08 12:09:38;;;;;;;23.55;11.50;;;;;;;9.08;82.72;101380.03;6258844;28;20041;-76
2024/03/08 12:12:41;;;;;;;27.13;11.90;;;;;;;9.11;81.88;101386.94;6253925;28;20456;-76
2024/03/08 12:15:44;;;;;;;25.63;10.88;;;;;;;9.37;82.42;101393.81;6253012;28;20048;-78
2024/03/08 12:18:46;;;;;;;23.42;11.50;;;;;;;9.47;81.13;101379.44;6253255;28;20045;-76
2024/03/08 12:21:49;;;;;;;21.48;11.65;;;;;;;9.59;80.43;101376.34;6262552;28;20401;-79
2024/03/08 12:25:04;;;;;;;27.23;11.10;;;;;;;9.44;81.15;101371.69;6255207;28;20092;-76
2024/03/08 12:28:12;;;;;;;30.73;12.43;;;;;;;9.76;77.18;101366.94;6253397;28;20463;-78
2024/03/08 12:31:16;;;;;;;23.83;11.57;;;;;;;9.81;79.29;101360.59;6253106;28;20045;-77
2024/03/08 12:34:18;;;;;;;22.05;11.27;;;;;;;10.09;78.12;101351.59;6252703;28;20046;-78
2024/03/08 12:37:19;;;;;;;28.02;12.18;;;;;;;10.12;80.01;101343.56;6253288;28;20052;-77
2024/03/08 12:40:28;;;;;;;29.83;12.00;;;;;;;10.29;74.75;101338.50;6252293;28;20323;-76
2024/03/08 12:43:30;;;;;;;29.93;12.80;;;;;;;10.09;76.98;101333.22;6253321;28;20067;-79
2024/03/08 12:46:32;;;;;;;28.95;12.98;;;;;;;10.13;78.26;101326.91;6260727;28;20192;-77
2024/03/08 12:49:34;;;;;;;25.83;12.05;;;;;;;10.37;74.94;101320.63;6252550;28;20045;-78
2024/03/08 12:52:36;;;;;;;29.95;11.88;;;;;;;10.48;76.22;101307.03;6252756;28;20048;-78
2024/03/08 12:55:38;;;;;;;25.42;12.13;;;;;;;10.56;73.77;101307.53;6258088;28;20041;-77
2024/03/08 12:58:40;;;;;;;28.95;13.40;;;;;;;10.60;75.24;101314.38;6252226;28;20049;-77
2024/03/08 13:01:43;;;;;;;28.65;12.80;;;;;;;10.37;73.03;101304.88;6252290;28;20176;-78
2024/03/08 13:04:44;;;;;;;31.38;12.82;;;;;;;10.37;72.14;101304.03;6269001;28;20045;-80
2024/03/08 13:07:46;;;;;;;33.53;12.85;;;;;;;10.75;72.41;101297.06;6275411;28;20073;-77
2024/03/08 13:10:48;;;;;;;27.00;12.48;;;;;;;10.76;70.30;101293.50;6266990;28;20041;-79
2024/03/08 13:13:49;;;;;;;27.98;12.77;;;;;;;10.86;71.13;101283.44;6276753;28;20045;-77
2024/03/08 13:16:52;;;;;;;28.55;13.90;;;;;;;10.82;70.89;101289.75;6276763;28;20052;-77
2024/03/08 13:19:57;;;;;;;29.02;13.80;;;;;;;10.91;69.55;101276.19;6276135;28;20067;-77
2024/03/08 13:23:01;;;;;;;25.67;12.85;;;;;;;10.72;69.92;101267.41;6276975;28;20045;-77
2024/03/08 13:26:04;;;;;;;24.85;12.48;;;;;;;10.88;70.80;101255.28;6253918;28;20060;-77
2024/03/08 13:29:06;;;;;;;25.35;12.68;;;;;;;11.23;66.85;101255.41;6251636;28;20049;-79
2024/03/08 13:32:11;;;;;;;29.30;13.20;;;;;;;11.16;69.18;101246.94;6251722;28;20045;-76
2024/03/08 13:35:13;;;;;;;30.40;12.70;;;;;;;11.00;67.60;101246.84;6250963;28;20511;-78
2024/03/08 13:38:15;;;;;;;27.15;13.88;;;;;;;10.88;70.06;101247.41;6251286;28;20045;-78
2024/03/08 13:41:20;;;;;;;28.73;12.18;;;;;;;11.29;67.62;101239.31;6250957;28;20045;-78
2024/03/08 13:44:21;;;;;;;25.67;11.88;;;;;;;11.46;66.03;101236.72;6251332;28;20052;-77
2024/03/08 13:47:24;;;;;;;25.70;11.50;;;;;;;11.20;65.93;101226.63;6251391;28;20045;-76
2024/03/08 13:50:26;;;;;;;29.90;13.02;;;;;;;11.21;66.14;101223.06;6250882;28;20125;-76
2024/03/08 13:53:27;;;;;;;27.30;12.82;;;;;;;11.42;65.19;101217.59;6251159;28;20104;-76